sensor_id;sensor_type;location;lat;lon;timestamp;P1;durP1;ratioP1;P2;durP2;ratioP2
32082;SDS011;18597;48.328;7.932;2023-03-08T00:01:11;21.57;;;12.40;;
32082;SDS011;18597;48.328;7.932;2023-03-08T00:03:39;19.53;;;11.80;;
32082;SDS011;18597;48.328;7.932;2023-03-08T00:06:06;17.63;;;12.10;;
32082;SDS011;18597;48.328;7.932;2023-03-08T00:08:34;19.60;;;12.27;;
32082;SDS011;18597;48.328;7.932;2023-03-08T00:11:03;18.80;;;11.23;;
32082;SDS011;18597;48.328;7.932;2023-03-08T00:13:31;24.03;;;12.10;;
32082;SDS011;18597;48.328;7.932;2023-03-08T00:15:59;19.23;;;11.40;;
32082;SDS011;18597;48.328;7.932;2023-03-08T00:18:25;23.63;;;11.23;;
32082;SDS011;18597;48.328;7.932;2023-03-08T00:21:08;16.20;;;11.27;;
32082;SDS011;18597;48.328;7.932;2023-03-08T00:23:38;24.83;;;11.67;;
32082;SDS011;18597;48.328;7.932;2023-03-08T00:26:04;21.37;;;11.80;;
32082;SDS011;18597;48.328;7.932;2023-03-08T00:28:30;20.60;;;11.63;;
32082;SDS011;18597;48.328;7.932;2023-03-08T00:30:58;18.83;;;11.80;;
32082;SDS011;18597;48.328;7.932;2023-03-08T00:33:27;19.57;;;12.53;;
32082;SDS011;18597;48.328;7.932;2023-03-08T00:35:58;25.10;;;12.37;;
32082;SDS011;18597;48.328;7.932;2023-03-08T00:38:28;26.40;;;12.33;;
32082;SDS011;18597;48.328;7.932;2023-03-08T00:40:57;25.07;;;13.90;;
32082;SDS011;18597;48.328;7.932;2023-03-08T00:43:23;20.33;;;11.50;;
32082;SDS011;18597;48.328;7.932;2023-03-08T00:45:50;15.20;;;10.20;;
32082;SDS011;18597;48.328;7.932;2023-03-08T00:48:16;24.17;;;11.73;;
32082;SDS011;18597;48.328;7.932;2023-03-08T00:50:42;22.60;;;12.00;;
32082;SDS011;18597;48.328;7.932;2023-03-08T00:53:09;20.97;;;12.30;;
32082;SDS011;18597;48.328;7.932;2023-03-08T00:55:35;17.60;;;11.43;;
32082;SDS011;18597;48.328;7.932;2023-03-08T00:58:01;17.57;;;10.43;;
32082;SDS011;18597;48.328;7.932;2023-03-08T01:00:27;18.23;;;11.37;;
32082;SDS011;18597;48.328;7.932;2023-03-08T01:02:54;16.13;;;10.63;;
32082;SDS011;18597;48.328;7.932;2023-03-08T01:05:21;23.73;;;12.50;;
32082;SDS011;18597;48.328;7.932;2023-03-08T01:07:47;25.77;;;13.70;;
32082;SDS011;18597;48.328;7.932;2023-03-08T01:10:13;18.63;;;12.20;;
32082;SDS011;18597;48.328;7.932;2023-03-08T01:12:39;23.30;;;12.20;;
32082;SDS011;18597;48.328;7.932;2023-03-08T01:15:05;19.00;;;11.17;;
32082;SDS011;18597;48.328;7.932;2023-03-08T01:17:32;19.50;;;12.80;;
32082;SDS011;18597;48.328;7.932;2023-03-08T01:19:58;19.73;;;11.03;;
32082;SDS011;18597;48.328;7.932;2023-03-08T01:22:24;24.43;;;12.97;;
32082;SDS011;18597;48.328;7.932;2023-03-08T01:24:50;17.47;;;11.70;;
32082;SDS011;18597;48.328;7.932;2023-03-08T01:27:16;19.20;;;11.53;;
32082;SDS011;18597;48.328;7.932;2023-03-08T01:29:42;28.37;;;15.90;;
32082;SDS011;18597;48.328;7.932;2023-03-08T01:32:09;27.73;;;14.83;;
32082;SDS011;18597;48.328;7.932;2023-03-08T01:34:36;21.77;;;12.30;;
32082;SDS011;18597;48.328;7.932;2023-03-08T01:37:03;33.67;;;15.70;;
32082;SDS011;18597;48.328;7.932;2023-03-08T01:39:29;28.97;;;15.13;;
32082;SDS011;18597;48.328;7.932;2023-03-08T01:41:55;19.30;;;11.03;;
32082;SDS011;18597;48.328;7.932;2023-03-08T01:44:21;17.70;;;11.90;;
32082;SDS011;18597;48.328;7.932;2023-03-08T01:46:48;25.17;;;15.30;;
32082;SDS011;18597;48.328;7.932;2023-03-08T01:49:16;32.00;;;16.80;;
32082;SDS011;18597;48.328;7.932;2023-03-08T01:51:53;25.17;;;13.67;;
32082;SDS011;18597;48.328;7.932;2023-03-08T01:54:30;59.57;;;24.50;;
32082;SDS011;18597;48.328;7.932;2023-03-08T01:57:14;34.70;;;18.90;;
32082;SDS011;18597;48.328;7.932;2023-03-08T01:59:52;20.77;;;11.33;;
32082;SDS011;18597;48.328;7.932;2023-03-08T02:02:25;18.33;;;10.93;;
32082;SDS011;18597;48.328;7.932;2023-03-08T02:04:58;38.83;;;17.00;;
32082;SDS011;18597;48.328;7.932;2023-03-08T02:07:24;22.53;;;12.63;;
32082;SDS011;18597;48.328;7.932;2023-03-08T02:09:50;17.70;;;12.07;;
32082;SDS011;18597;48.328;7.932;2023-03-08T02:12:16;19.00;;;11.63;;
32082;SDS011;18597;48.328;7.932;2023-03-08T02:14:42;19.67;;;12.63;;
32082;SDS011;18597;48.328;7.932;2023-03-08T02:17:09;16.60;;;11.30;;
32082;SDS011;18597;48.328;7.932;2023-03-08T02:19:45;18.80;;;10.73;;
32082;SDS011;18597;48.328;7.932;2023-03-08T02:22:18;16.80;;;10.00;;
32082;SDS011;18597;48.328;7.932;2023-03-08T02:24:44;26.40;;;14.07;;
32082;SDS011;18597;48.328;7.932;2023-03-08T02:27:12;20.30;;;10.63;;
32082;SDS011;18597;48.328;7.932;2023-03-08T02:29:42;14.80;;;9.50;;
32082;SDS011;18597;48.328;7.932;2023-03-08T02:32:08;10.73;;;8.40;;
32082;SDS011;18597;48.328;7.932;2023-03-08T02:34:34;15.10;;;9.83;;
32082;SDS011;18597;48.328;7.932;2023-03-08T02:37:00;12.77;;;8.47;;
32082;SDS011;18597;48.328;7.932;2023-03-08T02:39:26;58.53;;;21.80;;
32082;SDS011;18597;48.328;7.932;2023-03-08T02:41:52;23.17;;;11.23;;
32082;SDS011;18597;48.328;7.932;2023-03-08T02:44:18;16.13;;;9.53;;
32082;SDS011;18597;48.328;7.932;2023-03-08T02:46:44;15.80;;;9.43;;
32082;SDS011;18597;48.328;7.932;2023-03-08T02:49:10;13.50;;;8.63;;
32082;SDS011;18597;48.328;7.932;2023-03-08T02:51:36;13.30;;;9.90;;
32082;SDS011;18597;48.328;7.932;2023-03-08T02:54:02;17.77;;;9.00;;
32082;SDS011;18597;48.328;7.932;2023-03-08T02:56:28;14.17;;;8.87;;
32082;SDS011;18597;48.328;7.932;2023-03-08T02:58:54;18.03;;;8.30;;
32082;SDS011;18597;48.328;7.932;2023-03-08T03:01:20;14.27;;;9.07;;
32082;SDS011;18597;48.328;7.932;2023-03-08T03:03:46;12.53;;;8.47;;
32082;SDS011;18597;48.328;7.932;2023-03-08T03:06:13;28.97;;;13.10;;
32082;SDS011;18597;48.328;7.932;2023-03-08T03:08:41;11.87;;;7.97;;
32082;SDS011;18597;48.328;7.932;2023-03-08T03:11:15;18.93;;;11.00;;
32082;SDS011;18597;48.328;7.932;2023-03-08T03:13:44;18.13;;;9.87;;
32082;SDS011;18597;48.328;7.932;2023-03-08T03:16:11;17.60;;;10.10;;
32082;SDS011;18597;48.328;7.932;2023-03-08T03:18:40;11.60;;;8.77;;
32082;SDS011;18597;48.328;7.932;2023-03-08T03:21:08;15.90;;;10.43;;
32082;SDS011;18597;48.328;7.932;2023-03-08T03:23:37;22.47;;;12.40;;
32082;SDS011;18597;48.328;7.932;2023-03-08T03:26:05;20.70;;;10.30;;
32082;SDS011;18597;48.328;7.932;2023-03-08T03:28:34;16.33;;;9.93;;
32082;SDS011;18597;48.328;7.932;2023-03-08T03:31:00;16.33;;;9.57;;
32082;SDS011;18597;48.328;7.932;2023-03-08T03:33:30;18.57;;;10.50;;
32082;SDS011;18597;48.328;7.932;2023-03-08T03:35:56;21.90;;;10.80;;
32082;SDS011;18597;48.328;7.932;2023-03-08T03:38:22;15.67;;;10.37;;
32082;SDS011;18597;48.328;7.932;2023-03-08T03:40:48;16.10;;;10.50;;
32082;SDS011;18597;48.328;7.932;2023-03-08T03:43:14;15.60;;;9.70;;
32082;SDS011;18597;48.328;7.932;2023-03-08T03:45:40;19.30;;;9.90;;
32082;SDS011;18597;48.328;7.932;2023-03-08T03:48:06;12.33;;;9.43;;
32082;SDS011;18597;48.328;7.932;2023-03-08T03:50:32;21.70;;;10.83;;
32082;SDS011;18597;48.328;7.932;2023-03-08T03:52:58;20.33;;;10.77;;
32082;SDS011;18597;48.328;7.932;2023-03-08T03:55:23;18.23;;;10.20;;
32082;SDS011;18597;48.328;7.932;2023-03-08T03:57:49;16.80;;;9.33;;
32082;SDS011;18597;48.328;7.932;2023-03-08T04:00:15;22.57;;;11.40;;
32082;SDS011;18597;48.328;7.932;2023-03-08T04:02:41;17.33;;;10.87;;
32082;SDS011;18597;48.328;7.932;2023-03-08T04:05:07;16.03;;;11.57;;
32082;SDS011;18597;48.328;7.932;2023-03-08T04:07:33;20.43;;;10.87;;
32082;SDS011;18597;48.328;7.932;2023-03-08T04:09:59;19.10;;;10.77;;
32082;SDS011;18597;48.328;7.932;2023-03-08T04:12:25;22.73;;;12.00;;
32082;SDS011;18597;48.328;7.932;2023-03-08T04:14:52;19.93;;;11.80;;
32082;SDS011;18597;48.328;7.932;2023-03-08T04:17:18;13.53;;;10.33;;
32082;SDS011;18597;48.328;7.932;2023-03-08T04:19:44;16.20;;;10.30;;
32082;SDS011;18597;48.328;7.932;2023-03-08T04:22:14;16.30;;;10.27;;
32082;SDS011;18597;48.328;7.932;2023-03-08T04:24:40;14.40;;;9.20;;
32082;SDS011;18597;48.328;7.932;2023-03-08T04:27:05;17.50;;;10.40;;
32082;SDS011;18597;48.328;7.932;2023-03-08T04:29:31;14.40;;;9.50;;
32082;SDS011;18597;48.328;7.932;2023-03-08T04:31:57;17.50;;;11.03;;
32082;SDS011;18597;48.328;7.932;2023-03-08T04:34:24;16.67;;;9.77;;
32082;SDS011;18597;48.328;7.932;2023-03-08T04:36:51;18.73;;;10.50;;
32082;SDS011;18597;48.328;7.932;2023-03-08T04:39:16;16.93;;;10.73;;
32082;SDS011;18597;48.328;7.932;2023-03-08T04:41:42;18.00;;;10.63;;
32082;SDS011;18597;48.328;7.932;2023-03-08T04:44:08;14.43;;;9.80;;
32082;SDS011;18597;48.328;7.932;2023-03-08T04:46:34;15.40;;;10.17;;
32082;SDS011;18597;48.328;7.932;2023-03-08T04:48:59;19.37;;;10.13;;
32082;SDS011;18597;48.328;7.932;2023-03-08T04:51:26;13.97;;;9.50;;
32082;SDS011;18597;48.328;7.932;2023-03-08T04:53:52;13.57;;;9.77;;
32082;SDS011;18597;48.328;7.932;2023-03-08T04:56:18;17.40;;;10.07;;
32082;SDS011;18597;48.328;7.932;2023-03-08T04:58:44;19.90;;;10.07;;
32082;SDS011;18597;48.328;7.932;2023-03-08T05:01:12;25.98;;;10.90;;
32082;SDS011;18597;48.328;7.932;2023-03-08T05:03:47;17.07;;;9.73;;
32082;SDS011;18597;48.328;7.932;2023-03-08T05:06:13;17.70;;;9.40;;
32082;SDS011;18597;48.328;7.932;2023-03-08T05:08:39;14.83;;;9.33;;
32082;SDS011;18597;48.328;7.932;2023-03-08T05:11:05;12.93;;;9.50;;
32082;SDS011;18597;48.328;7.932;2023-03-08T05:13:33;18.03;;;9.80;;
32082;SDS011;18597;48.328;7.932;2023-03-08T05:16:02;16.10;;;8.60;;
32082;SDS011;18597;48.328;7.932;2023-03-08T05:18:30;17.13;;;9.83;;
32082;SDS011;18597;48.328;7.932;2023-03-08T05:20:57;21.97;;;11.17;;
32082;SDS011;18597;48.328;7.932;2023-03-08T05:23:27;12.77;;;9.00;;
32082;SDS011;18597;48.328;7.932;2023-03-08T05:25:55;18.80;;;9.27;;
32082;SDS011;18597;48.328;7.932;2023-03-08T05:28:24;14.90;;;8.77;;
32082;SDS011;18597;48.328;7.932;2023-03-08T05:31:01;16.57;;;10.33;;
32082;SDS011;18597;48.328;7.932;2023-03-08T05:33:31;15.10;;;9.97;;
32082;SDS011;18597;48.328;7.932;2023-03-08T05:35:57;12.90;;;9.60;;
32082;SDS011;18597;48.328;7.932;2023-03-08T05:38:23;13.43;;;9.90;;
32082;SDS011;18597;48.328;7.932;2023-03-08T05:40:50;15.67;;;10.70;;
32082;SDS011;18597;48.328;7.932;2023-03-08T05:43:17;11.03;;;8.90;;
32082;SDS011;18597;48.328;7.932;2023-03-08T05:45:52;14.67;;;11.47;;
32082;SDS011;18597;48.328;7.932;2023-03-08T05:48:21;22.43;;;10.73;;
32082;SDS011;18597;48.328;7.932;2023-03-08T05:50:47;14.87;;;9.57;;
32082;SDS011;18597;48.328;7.932;2023-03-08T05:53:13;13.40;;;9.73;;
32082;SDS011;18597;48.328;7.932;2023-03-08T05:55:39;21.03;;;10.70;;
32082;SDS011;18597;48.328;7.932;2023-03-08T05:58:05;15.33;;;10.57;;
32082;SDS011;18597;48.328;7.932;2023-03-08T06:00:31;12.60;;;8.70;;
32082;SDS011;18597;48.328;7.932;2023-03-08T06:02:58;12.63;;;8.73;;
32082;SDS011;18597;48.328;7.932;2023-03-08T06:05:28;13.23;;;9.10;;
32082;SDS011;18597;48.328;7.932;2023-03-08T06:07:54;14.20;;;9.27;;
32082;SDS011;18597;48.328;7.932;2023-03-08T06:10:21;13.20;;;8.50;;
32082;SDS011;18597;48.328;7.932;2023-03-08T06:12:47;15.37;;;9.60;;
32082;SDS011;18597;48.328;7.932;2023-03-08T06:15:13;14.57;;;9.40;;
32082;SDS011;18597;48.328;7.932;2023-03-08T06:17:39;13.97;;;8.57;;
32082;SDS011;18597;48.328;7.932;2023-03-08T06:20:06;13.10;;;8.83;;
32082;SDS011;18597;48.328;7.932;2023-03-08T06:22:34;14.50;;;8.63;;
32082;SDS011;18597;48.328;7.932;2023-03-08T06:25:00;10.53;;;8.00;;
32082;SDS011;18597;48.328;7.932;2023-03-08T06:27:26;13.07;;;8.27;;
32082;SDS011;18597;48.328;7.932;2023-03-08T06:29:53;13.70;;;8.37;;
32082;SDS011;18597;48.328;7.932;2023-03-08T06:32:19;14.60;;;8.20;;
32082;SDS011;18597;48.328;7.932;2023-03-08T06:34:45;14.60;;;9.00;;
32082;SDS011;18597;48.328;7.932;2023-03-08T06:37:12;13.20;;;8.13;;
32082;SDS011;18597;48.328;7.932;2023-03-08T06:39:38;12.87;;;8.40;;
32082;SDS011;18597;48.328;7.932;2023-03-08T06:42:05;14.33;;;8.50;;
32082;SDS011;18597;48.328;7.932;2023-03-08T06:44:32;12.10;;;8.07;;
32082;SDS011;18597;48.328;7.932;2023-03-08T06:46:57;8.93;;;8.00;;
32082;SDS011;18597;48.328;7.932;2023-03-08T06:49:23;12.40;;;8.47;;
32082;SDS011;18597;48.328;7.932;2023-03-08T06:51:49;15.33;;;10.20;;
32082;SDS011;18597;48.328;7.932;2023-03-08T06:54:15;19.20;;;9.27;;
32082;SDS011;18597;48.328;7.932;2023-03-08T06:56:43;13.60;;;8.87;;
32082;SDS011;18597;48.328;7.932;2023-03-08T06:59:11;10.43;;;8.20;;
32082;SDS011;18597;48.328;7.932;2023-03-08T07:01:38;11.47;;;7.63;;
32082;SDS011;18597;48.328;7.932;2023-03-08T07:04:04;12.13;;;8.53;;
32082;SDS011;18597;48.328;7.932;2023-03-08T07:06:31;9.90;;;7.70;;
32082;SDS011;18597;48.328;7.932;2023-03-08T07:08:57;11.40;;;7.93;;
32082;SDS011;18597;48.328;7.932;2023-03-08T07:11:23;11.43;;;6.93;;
32082;SDS011;18597;48.328;7.932;2023-03-08T07:13:51;12.73;;;8.83;;
32082;SDS011;18597;48.328;7.932;2023-03-08T07:16:16;10.80;;;7.33;;
32082;SDS011;18597;48.328;7.932;2023-03-08T07:18:42;12.93;;;7.20;;
32082;SDS011;18597;48.328;7.932;2023-03-08T07:21:08;7.93;;;6.60;;
32082;SDS011;18597;48.328;7.932;2023-03-08T07:23:35;11.90;;;7.17;;
32082;SDS011;18597;48.328;7.932;2023-03-08T07:26:08;8.33;;;6.93;;
32082;SDS011;18597;48.328;7.932;2023-03-08T07:28:34;7.70;;;6.70;;
32082;SDS011;18597;48.328;7.932;2023-03-08T07:31:00;7.67;;;6.40;;
32082;SDS011;18597;48.328;7.932;2023-03-08T07:33:26;7.97;;;6.40;;
32082;SDS011;18597;48.328;7.932;2023-03-08T07:35:52;12.13;;;5.77;;
32082;SDS011;18597;48.328;7.932;2023-03-08T07:38:18;6.77;;;5.97;;
32082;SDS011;18597;48.328;7.932;2023-03-08T07:40:44;9.20;;;6.57;;
32082;SDS011;18597;48.328;7.932;2023-03-08T07:43:10;8.50;;;5.93;;
32082;SDS011;18597;48.328;7.932;2023-03-08T07:45:37;9.10;;;7.57;;
32082;SDS011;18597;48.328;7.932;2023-03-08T07:48:04;12.50;;;8.90;;
32082;SDS011;18597;48.328;7.932;2023-03-08T07:50:30;13.13;;;8.90;;
32082;SDS011;18597;48.328;7.932;2023-03-08T07:52:57;6.77;;;6.13;;
32082;SDS011;18597;48.328;7.932;2023-03-08T07:55:24;9.67;;;7.33;;
32082;SDS011;18597;48.328;7.932;2023-03-08T07:57:51;10.67;;;6.80;;
32082;SDS011;18597;48.328;7.932;2023-03-08T08:00:18;14.47;;;8.37;;
32082;SDS011;18597;48.328;7.932;2023-03-08T08:02:44;6.93;;;6.23;;
32082;SDS011;18597;48.328;7.932;2023-03-08T08:05:12;9.10;;;7.50;;
32082;SDS011;18597;48.328;7.932;2023-03-08T08:07:38;11.00;;;7.57;;
32082;SDS011;18597;48.328;7.932;2023-03-08T08:10:04;6.50;;;5.93;;
32082;SDS011;18597;48.328;7.932;2023-03-08T08:12:32;6.43;;;4.10;;
32082;SDS011;18597;48.328;7.932;2023-03-08T08:14:58;8.43;;;5.63;;
32082;SDS011;18597;48.328;7.932;2023-03-08T08:17:24;5.13;;;4.63;;
32082;SDS011;18597;48.328;7.932;2023-03-08T08:19:50;6.10;;;5.47;;
32082;SDS011;18597;48.328;7.932;2023-03-08T08:22:16;6.60;;;5.30;;
32082;SDS011;18597;48.328;7.932;2023-03-08T08:24:42;4.17;;;3.87;;
32082;SDS011;18597;48.328;7.932;2023-03-08T08:27:07;4.80;;;4.40;;
32082;SDS011;18597;48.328;7.932;2023-03-08T08:29:33;6.97;;;5.13;;
32082;SDS011;18597;48.328;7.932;2023-03-08T08:32:01;4.83;;;4.40;;
32082;SDS011;18597;48.328;7.932;2023-03-08T08:34:28;6.63;;;5.03;;
32082;SDS011;18597;48.328;7.932;2023-03-08T08:36:54;6.23;;;5.00;;
32082;SDS011;18597;48.328;7.932;2023-03-08T08:39:20;5.27;;;4.30;;
32082;SDS011;18597;48.328;7.932;2023-03-08T08:41:47;6.43;;;5.93;;
32082;SDS011;18597;48.328;7.932;2023-03-08T08:44:14;7.40;;;4.40;;
32082;SDS011;18597;48.328;7.932;2023-03-08T08:46:40;4.70;;;4.30;;
32082;SDS011;18597;48.328;7.932;2023-03-08T08:49:06;4.80;;;3.30;;
32082;SDS011;18597;48.328;7.932;2023-03-08T08:51:31;5.80;;;3.80;;
32082;SDS011;18597;48.328;7.932;2023-03-08T08:53:57;4.33;;;3.97;;
32082;SDS011;18597;48.328;7.932;2023-03-08T08:56:24;4.27;;;3.90;;
32082;SDS011;18597;48.328;7.932;2023-03-08T08:58:52;5.97;;;3.97;;
32082;SDS011;18597;48.328;7.932;2023-03-08T09:01:22;3.97;;;3.80;;
32082;SDS011;18597;48.328;7.932;2023-03-08T09:03:51;3.83;;;3.53;;
32082;SDS011;18597;48.328;7.932;2023-03-08T09:06:18;3.90;;;3.50;;
32082;SDS011;18597;48.328;7.932;2023-03-08T09:08:49;3.60;;;3.40;;
32082;SDS011;18597;48.328;7.932;2023-03-08T09:11:17;4.20;;;3.17;;
32082;SDS011;18597;48.328;7.932;2023-03-08T09:13:43;4.57;;;4.23;;
32082;SDS011;18597;48.328;7.932;2023-03-08T09:16:16;5.10;;;4.27;;
32082;SDS011;18597;48.328;7.932;2023-03-08T09:18:47;3.10;;;2.90;;
32082;SDS011;18597;48.328;7.932;2023-03-08T09:21:13;2.83;;;2.70;;
32082;SDS011;18597;48.328;7.932;2023-03-08T09:23:39;3.43;;;3.17;;
32082;SDS011;18597;48.328;7.932;2023-03-08T09:26:05;2.90;;;2.57;;
32082;SDS011;18597;48.328;7.932;2023-03-08T09:28:32;2.93;;;2.83;;
32082;SDS011;18597;48.328;7.932;2023-03-08T09:30:58;3.53;;;2.57;;
32082;SDS011;18597;48.328;7.932;2023-03-08T09:33:24;2.10;;;2.00;;
32082;SDS011;18597;48.328;7.932;2023-03-08T09:35:54;2.20;;;2.00;;
32082;SDS011;18597;48.328;7.932;2023-03-08T09:38:22;4.93;;;2.57;;
32082;SDS011;18597;48.328;7.932;2023-03-08T09:40:52;2.57;;;2.37;;
32082;SDS011;18597;48.328;7.932;2023-03-08T09:46:47;2.30;;;2.20;;
32082;SDS011;18597;48.328;7.932;2023-03-08T09:49:21;2.00;;;2.00;;
32082;SDS011;18597;48.328;7.932;2023-03-08T09:51:58;1.47;;;1.47;;
32082;SDS011;18597;48.328;7.932;2023-03-08T09:54:38;1.90;;;1.80;;
32082;SDS011;18597;48.328;7.932;2023-03-08T09:57:07;2.00;;;1.90;;
32082;SDS011;18597;48.328;7.932;2023-03-08T09:59:48;2.70;;;2.60;;
32082;SDS011;18597;48.328;7.932;2023-03-08T10:02:27;2.17;;;2.00;;
32082;SDS011;18597;48.328;7.932;2023-03-08T10:05:39;1.93;;;1.80;;
32082;SDS011;18597;48.328;7.932;2023-03-08T10:08:39;1.87;;;1.73;;
32082;SDS011;18597;48.328;7.932;2023-03-08T10:11:42;2.60;;;2.47;;
32082;SDS011;18597;48.328;7.932;2023-03-08T10:14:36;2.17;;;2.07;;
32082;SDS011;18597;48.328;7.932;2023-03-08T10:17:11;2.00;;;1.90;;
32082;SDS011;18597;48.328;7.932;2023-03-08T10:19:51;1.87;;;1.77;;
32082;SDS011;18597;48.328;7.932;2023-03-08T10:22:26;2.20;;;1.60;;
32082;SDS011;18597;48.328;7.932;2023-03-08T10:25:27;2.83;;;1.50;;
32082;SDS011;18597;48.328;7.932;2023-03-08T10:28:02;2.27;;;2.17;;
32082;SDS011;18597;48.328;7.932;2023-03-08T10:30:43;2.17;;;2.07;;
32082;SDS011;18597;48.328;7.932;2023-03-08T10:33:13;2.20;;;2.10;;
32082;SDS011;18597;48.328;7.932;2023-03-08T10:38:41;2.07;;;1.97;;
32082;SDS011;18597;48.328;7.932;2023-03-08T10:41:20;3.07;;;2.60;;
32082;SDS011;18597;48.328;7.932;2023-03-08T10:43:49;3.67;;;2.60;;
32082;SDS011;18597;48.328;7.932;2023-03-08T10:46:19;2.00;;;1.90;;
32082;SDS011;18597;48.328;7.932;2023-03-08T10:48:48;4.10;;;1.90;;
32082;SDS011;18597;48.328;7.932;2023-03-08T10:51:16;2.50;;;2.30;;
32082;SDS011;18597;48.328;7.932;2023-03-08T10:53:54;1.97;;;1.87;;
32082;SDS011;18597;48.328;7.932;2023-03-08T10:56:24;2.00;;;1.90;;
32082;SDS011;18597;48.328;7.932;2023-03-08T10:59:15;3.53;;;2.63;;
32082;SDS011;18597;48.328;7.932;2023-03-08T11:01:48;2.33;;;2.23;;
32082;SDS011;18597;48.328;7.932;2023-03-08T11:04:20;3.50;;;3.27;;
32082;SDS011;18597;48.328;7.932;2023-03-08T11:06:48;3.57;;;2.60;;
32082;SDS011;18597;48.328;7.932;2023-03-08T11:09:26;2.33;;;2.20;;
32082;SDS011;18597;48.328;7.932;2023-03-08T11:11:55;2.47;;;2.23;;
32082;SDS011;18597;48.328;7.932;2023-03-08T11:14:23;2.67;;;2.47;;
32082;SDS011;18597;48.328;7.932;2023-03-08T11:17:31;1.80;;;1.70;;
32082;SDS011;18597;48.328;7.932;2023-03-08T11:20:14;1.70;;;1.60;;
32082;SDS011;18597;48.328;7.932;2023-03-08T11:23:24;6.70;;;1.63;;
32082;SDS011;18597;48.328;7.932;2023-03-08T11:26:04;1.97;;;1.83;;
32082;SDS011;18597;48.328;7.932;2023-03-08T11:29:02;2.00;;;1.90;;
32082;SDS011;18597;48.328;7.932;2023-03-08T11:35:11;1.87;;;1.77;;
32082;SDS011;18597;48.328;7.932;2023-03-08T11:38:34;2.27;;;2.20;;
32082;SDS011;18597;48.328;7.932;2023-03-08T11:41:05;2.37;;;2.17;;
32082;SDS011;18597;48.328;7.932;2023-03-08T11:44:16;1.70;;;1.60;;
32082;SDS011;18597;48.328;7.932;2023-03-08T11:47:51;2.00;;;1.73;;
32082;SDS011;18597;48.328;7.932;2023-03-08T11:50:48;1.70;;;1.60;;
32082;SDS011;18597;48.328;7.932;2023-03-08T11:56:56;1.50;;;1.40;;
32082;SDS011;18597;48.328;7.932;2023-03-08T11:59:28;2.77;;;2.00;;
32082;SDS011;18597;48.328;7.932;2023-03-08T12:04:46;3.70;;;1.03;;
32082;SDS011;18597;48.328;7.932;2023-03-08T12:07:40;3.23;;;1.60;;
32082;SDS011;18597;48.328;7.932;2023-03-08T12:10:28;1.80;;;1.70;;
32082;SDS011;18597;48.328;7.932;2023-03-08T12:13:16;1.80;;;1.60;;
32082;SDS011;18597;48.328;7.932;2023-03-08T12:16:05;1.63;;;1.53;;
32082;SDS011;18597;48.328;7.932;2023-03-08T12:18:56;3.90;;;1.17;;
32082;SDS011;18597;48.328;7.932;2023-03-08T12:24:52;1.20;;;1.20;;
32082;SDS011;18597;48.328;7.932;2023-03-08T12:28:17;2.53;;;0.80;;
32082;SDS011;18597;48.328;7.932;2023-03-08T12:33:39;3.40;;;0.70;;
32082;SDS011;18597;48.328;7.932;2023-03-08T12:36:05;4.33;;;1.00;;
32082;SDS011;18597;48.328;7.932;2023-03-08T12:38:35;9.53;;;1.70;;
32082;SDS011;18597;48.328;7.932;2023-03-08T12:41:25;0.70;;;0.70;;
32082;SDS011;18597;48.328;7.932;2023-03-08T12:43:58;11.70;;;1.90;;
32082;SDS011;18597;48.328;7.932;2023-03-08T12:46:27;1.70;;;0.70;;
32082;SDS011;18597;48.328;7.932;2023-03-08T12:48:57;1.43;;;0.70;;
32082;SDS011;18597;48.328;7.932;2023-03-08T12:51:24;1.60;;;0.60;;
32082;SDS011;18597;48.328;7.932;2023-03-08T12:53:59;8.17;;;1.83;;
32082;SDS011;18597;48.328;7.932;2023-03-08T12:56:35;1.70;;;1.07;;
32082;SDS011;18597;48.328;7.932;2023-03-08T13:04:31;1.33;;;1.23;;
32082;SDS011;18597;48.328;7.932;2023-03-08T13:10:18;3.50;;;0.80;;
32082;SDS011;18597;48.328;7.932;2023-03-08T13:12:52;5.37;;;0.53;;
32082;SDS011;18597;48.328;7.932;2023-03-08T13:15:45;1.43;;;0.40;;
32082;SDS011;18597;48.328;7.932;2023-03-08T13:18:16;1.00;;;1.00;;
32082;SDS011;18597;48.328;7.932;2023-03-08T13:23:40;0.90;;;0.60;;
32082;SDS011;18597;48.328;7.932;2023-03-08T13:26:32;0.50;;;0.50;;
32082;SDS011;18597;48.328;7.932;2023-03-08T13:29:42;0.20;;;0.20;;
32082;SDS011;18597;48.328;7.932;2023-03-08T13:32:16;0.60;;;0.60;;
32082;SDS011;18597;48.328;7.932;2023-03-08T13:34:56;0.40;;;0.40;;
32082;SDS011;18597;48.328;7.932;2023-03-08T13:37:26;0.60;;;0.60;;
32082;SDS011;18597;48.328;7.932;2023-03-08T13:39:55;1.37;;;0.90;;
32082;SDS011;18597;48.328;7.932;2023-03-08T13:42:24;10.37;;;0.73;;
32082;SDS011;18597;48.328;7.932;2023-03-08T13:44:53;0.30;;;0.30;;
32082;SDS011;18597;48.328;7.932;2023-03-08T13:47:33;1.33;;;0.30;;
32082;SDS011;18597;48.328;7.932;2023-03-08T13:50:01;0.70;;;0.57;;
32082;SDS011;18597;48.328;7.932;2023-03-08T13:52:31;4.30;;;4.00;;
32082;SDS011;18597;48.328;7.932;2023-03-08T13:55:02;2.10;;;2.00;;
32082;SDS011;18597;48.328;7.932;2023-03-08T13:57:33;11.27;;;9.27;;
32082;SDS011;18597;48.328;7.932;2023-03-08T14:00:34;2.33;;;1.10;;
32082;SDS011;18597;48.328;7.932;2023-03-08T14:02:58;1.77;;;0.90;;
32082;SDS011;18597;48.328;7.932;2023-03-08T14:05:27;2.57;;;2.30;;
32082;SDS011;18597;48.328;7.932;2023-03-08T14:08:00;0.80;;;0.80;;
32082;SDS011;18597;48.328;7.932;2023-03-08T14:10:33;41.93;;;21.17;;
32082;SDS011;18597;48.328;7.932;2023-03-08T14:13:05;8.43;;;3.37;;
32082;SDS011;18597;48.328;7.932;2023-03-08T14:15:51;4.87;;;4.47;;
32082;SDS011;18597;48.328;7.932;2023-03-08T14:18:22;11.63;;;7.33;;
32082;SDS011;18597;48.328;7.932;2023-03-08T14:21:00;3.73;;;3.53;;
32082;SDS011;18597;48.328;7.932;2023-03-08T14:23:47;0.43;;;0.33;;
32082;SDS011;18597;48.328;7.932;2023-03-08T14:29:29;0.80;;;0.80;;
32082;SDS011;18597;48.328;7.932;2023-03-08T14:32:04;2.00;;;1.00;;
32082;SDS011;18597;48.328;7.932;2023-03-08T14:35:02;0.57;;;0.40;;
32082;SDS011;18597;48.328;7.932;2023-03-08T14:37:42;0.67;;;0.67;;
32082;SDS011;18597;48.328;7.932;2023-03-08T14:40:45;0.83;;;0.83;;
32082;SDS011;18597;48.328;7.932;2023-03-08T14:43:00;0.87;;;0.60;;
32082;SDS011;18597;48.328;7.932;2023-03-08T14:45:35;4.73;;;0.80;;
32082;SDS011;18597;48.328;7.932;2023-03-08T14:48:37;2.07;;;1.40;;
32082;SDS011;18597;48.328;7.932;2023-03-08T14:50:57;0.80;;;0.80;;
32082;SDS011;18597;48.328;7.932;2023-03-08T14:53:33;5.30;;;0.70;;
32082;SDS011;18597;48.328;7.932;2023-03-08T14:56:05;0.50;;;0.50;;
32082;SDS011;18597;48.328;7.932;2023-03-08T14:58:40;0.80;;;0.77;;
32082;SDS011;18597;48.328;7.932;2023-03-08T15:01:10;12.40;;;0.70;;
32082;SDS011;18597;48.328;7.932;2023-03-08T15:03:37;1.53;;;0.60;;
32082;SDS011;18597;48.328;7.932;2023-03-08T15:06:06;0.30;;;0.30;;
32082;SDS011;18597;48.328;7.932;2023-03-08T15:08:40;1.03;;;0.70;;
32082;SDS011;18597;48.328;7.932;2023-03-08T15:11:06;1.63;;;0.43;;
32082;SDS011;18597;48.328;7.932;2023-03-08T15:13:32;0.40;;;0.40;;
32082;SDS011;18597;48.328;7.932;2023-03-08T15:15:58;2.30;;;0.70;;
32082;SDS011;18597;48.328;7.932;2023-03-08T15:18:24;0.77;;;0.77;;
32082;SDS011;18597;48.328;7.932;2023-03-08T15:20:50;3.03;;;0.60;;
32082;SDS011;18597;48.328;7.932;2023-03-08T15:23:21;1.07;;;0.87;;
32082;SDS011;18597;48.328;7.932;2023-03-08T15:25:50;2.00;;;0.60;;
32082;SDS011;18597;48.328;7.932;2023-03-08T15:28:17;1.23;;;0.60;;
32082;SDS011;18597;48.328;7.932;2023-03-08T15:30:46;0.40;;;0.40;;
32082;SDS011;18597;48.328;7.932;2023-03-08T15:33:12;0.47;;;0.47;;
32082;SDS011;18597;48.328;7.932;2023-03-08T15:35:38;2.50;;;0.70;;